sensor_id;sensor_type;location;lat;lon;timestamp;temperature;humidity
9987;DHT22;5033;46.310;11.214;2022-10-17T00:00:53;15.20;99.90
9987;DHT22;5033;46.310;11.214;2022-10-17T00:03:20;15.20;99.90
9987;DHT22;5033;46.310;11.214;2022-10-17T00:05:47;15.20;99.90
9987;DHT22;5033;46.310;11.214;2022-10-17T00:08:16;15.20;99.90
9987;DHT22;5033;46.310;11.214;2022-10-17T00:10:45;15.20;99.90
9987;DHT22;5033;46.310;11.214;2022-10-17T00:13:20;15.20;99.90
9987;DHT22;5033;46.310;11.214;2022-10-17T00:15:48;15.20;99.90
9987;DHT22;5033;46.310;11.214;2022-10-17T00:18:15;15.30;99.90
9987;DHT22;5033;46.310;11.214;2022-10-17T00:20:42;15.30;99.90
9987;DHT22;5033;46.310;11.214;2022-10-17T00:23:09;15.30;99.90
9987;DHT22;5033;46.310;11.214;2022-10-17T00:25:36;15.30;99.90
9987;DHT22;5033;46.310;11.214;2022-10-17T00:28:05;15.30;99.90
9987;DHT22;5033;46.310;11.214;2022-10-17T00:30:32;15.30;99.90
9987;DHT22;5033;46.310;11.214;2022-10-17T00:32:59;15.40;99.90
9987;DHT22;5033;46.310;11.214;2022-10-17T00:35:26;15.30;99.90
9987;DHT22;5033;46.310;11.214;2022-10-17T00:37:53;15.30;99.90
9987;DHT22;5033;46.310;11.214;2022-10-17T00:40:20;15.30;99.90
9987;DHT22;5033;46.310;11.214;2022-10-17T00:42:47;15.30;99.90
9987;DHT22;5033;46.310;11.214;2022-10-17T00:45:21;15.30;99.90
9987;DHT22;5033;46.310;11.214;2022-10-17T00:47:51;15.20;99.90
9987;DHT22;5033;46.310;11.214;2022-10-17T00:50:20;15.30;99.90
9987;DHT22;5033;46.310;11.214;2022-10-17T00:52:48;15.20;99.90
9987;DHT22;5033;46.310;11.214;2022-10-17T00:55:17;15.10;99.90
9987;DHT22;5033;46.310;11.214;2022-10-17T00:57:46;15.10;99.90
9987;DHT22;5033;46.310;11.214;2022-10-17T01:00:15;15.10;99.90
9987;DHT22;5033;46.310;11.214;2022-10-17T01:02:44;15.00;99.90
9987;DHT22;5033;46.310;11.214;2022-10-17T01:05:11;15.00;99.90
9987;DHT22;5033;46.310;11.214;2022-10-17T01:07:39;15.00;99.90
9987;DHT22;5033;46.310;11.214;2022-10-17T01:10:07;14.90;99.90
9987;DHT22;5033;46.310;11.214;2022-10-17T01:12:45;14.90;99.90
9987;DHT22;5033;46.310;11.214;2022-10-17T01:15:20;14.90;99.90
9987;DHT22;5033;46.310;11.214;2022-10-17T01:18:06;14.90;99.90
9987;DHT22;5033;46.310;11.214;2022-10-17T01:20:58;14.90;99.90
9987;DHT22;5033;46.310;11.214;2022-10-17T01:26:49;14.90;99.90
9987;DHT22;5033;46.310;11.214;2022-10-17T01:29:34;14.90;99.90
9987;DHT22;5033;46.310;11.214;2022-10-17T01:32:12;14.90;99.90
9987;DHT22;5033;46.310;11.214;2022-10-17T01:34:44;15.00;99.90
9987;DHT22;5033;46.310;11.214;2022-10-17T01:37:17;15.00;99.90
9987;DHT22;5033;46.310;11.214;2022-10-17T01:39:48;15.00;99.90
9987;DHT22;5033;46.310;11.214;2022-10-17T01:42:20;15.10;99.90
9987;DHT22;5033;46.310;11.214;2022-10-17T01:44:56;15.10;99.90
9987;DHT22;5033;46.310;11.214;2022-10-17T01:47:27;15.10;99.90
9987;DHT22;5033;46.310;11.214;2022-10-17T01:49:59;15.10;99.90
9987;DHT22;5033;46.310;11.214;2022-10-17T01:52:34;15.10;99.90
9987;DHT22;5033;46.310;11.214;2022-10-17T01:55:07;15.10;99.90
9987;DHT22;5033;46.310;11.214;2022-10-17T01:57:37;15.10;99.90
9987;DHT22;5033;46.310;11.214;2022-10-17T02:00:08;15.10;99.90
9987;DHT22;5033;46.310;11.214;2022-10-17T02:02:38;15.10;99.90
9987;DHT22;5033;46.310;11.214;2022-10-17T02:05:07;15.00;99.90
9987;DHT22;5033;46.310;11.214;2022-10-17T02:07:35;15.10;99.90
9987;DHT22;5033;46.310;11.214;2022-10-17T02:10:04;15.10;99.90
9987;DHT22;5033;46.310;11.214;2022-10-17T02:12:46;15.10;99.90
9987;DHT22;5033;46.310;11.214;2022-10-17T02:18:46;15.10;99.90
9987;DHT22;5033;46.310;11.214;2022-10-17T02:21:23;15.10;99.90
9987;DHT22;5033;46.310;11.214;2022-10-17T02:23:54;15.10;99.90
9987;DHT22;5033;46.310;11.214;2022-10-17T02:26:27;15.10;99.90
9987;DHT22;5033;46.310;11.214;2022-10-17T02:29:03;15.10;99.90
9987;DHT22;5033;46.310;11.214;2022-10-17T02:31:37;15.20;99.90
9987;DHT22;5033;46.310;11.214;2022-10-17T02:34:09;15.20;99.90
9987;DHT22;5033;46.310;11.214;2022-10-17T02:36:41;15.20;99.90
9987;DHT22;5033;46.310;11.214;2022-10-17T02:39:10;15.20;99.90
9987;DHT22;5033;46.310;11.214;2022-10-17T02:41:39;15.20;99.90
9987;DHT22;5033;46.310;11.214;2022-10-17T02:44:07;15.20;99.90
9987;DHT22;5033;46.310;11.214;2022-10-17T02:46:36;15.10;99.90
9987;DHT22;5033;46.310;11.214;2022-10-17T02:49:10;15.10;99.90
9987;DHT22;5033;46.310;11.214;2022-10-17T02:51:43;15.00;99.90
9987;DHT22;5033;46.310;11.214;2022-10-17T02:54:15;15.00;99.90
9987;DHT22;5033;46.310;11.214;2022-10-17T02:56:50;15.00;99.90
9987;DHT22;5033;46.310;11.214;2022-10-17T02:59:19;15.00;99.90
9987;DHT22;5033;46.310;11.214;2022-10-17T03:01:48;15.00;99.90
9987;DHT22;5033;46.310;11.214;2022-10-17T03:04:18;15.00;99.90
9987;DHT22;5033;46.310;11.214;2022-10-17T03:06:46;15.00;99.90
9987;DHT22;5033;46.310;11.214;2022-10-17T03:09:13;15.00;99.90
9987;DHT22;5033;46.310;11.214;2022-10-17T03:11:41;15.10;99.90
9987;DHT22;5033;46.310;11.214;2022-10-17T03:14:08;15.10;99.90
9987;DHT22;5033;46.310;11.214;2022-10-17T03:16:35;15.10;99.90
9987;DHT22;5033;46.310;11.214;2022-10-17T03:19:02;15.10;99.90
9987;DHT22;5033;46.310;11.214;2022-10-17T03:21:31;15.00;99.90
9987;DHT22;5033;46.310;11.214;2022-10-17T03:23:58;15.10;99.90
9987;DHT22;5033;46.310;11.214;2022-10-17T03:26:25;15.00;99.90
9987;DHT22;5033;46.310;11.214;2022-10-17T03:28:54;15.00;99.90
9987;DHT22;5033;46.310;11.214;2022-10-17T03:31:21;14.90;99.90
9987;DHT22;5033;46.310;11.214;2022-10-17T03:33:48;14.90;99.90
9987;DHT22;5033;46.310;11.214;2022-10-17T03:36:17;14.90;99.90
9987;DHT22;5033;46.310;11.214;2022-10-17T03:38:46;14.90;99.90
9987;DHT22;5033;46.310;11.214;2022-10-17T03:41:13;14.90;99.90
9987;DHT22;5033;46.310;11.214;2022-10-17T03:43:40;14.80;99.90
9987;DHT22;5033;46.310;11.214;2022-10-17T03:46:08;14.60;99.90
9987;DHT22;5033;46.310;11.214;2022-10-17T03:48:35;14.60;99.90
9987;DHT22;5033;46.310;11.214;2022-10-17T03:51:03;14.50;99.90
9987;DHT22;5033;46.310;11.214;2022-10-17T03:53:31;14.50;99.90
9987;DHT22;5033;46.310;11.214;2022-10-17T03:56:11;14.50;99.90
9987;DHT22;5033;46.310;11.214;2022-10-17T03:58:38;14.60;99.90
9987;DHT22;5033;46.310;11.214;2022-10-17T04:01:06;14.60;99.90
9987;DHT22;5033;46.310;11.214;2022-10-17T04:03:34;14.60;99.90
9987;DHT22;5033;46.310;11.214;2022-10-17T04:06:02;14.50;99.90
9987;DHT22;5033;46.310;11.214;2022-10-17T04:08:29;14.50;99.90
9987;DHT22;5033;46.310;11.214;2022-10-17T04:10:57;14.50;99.90
9987;DHT22;5033;46.310;11.214;2022-10-17T04:13:26;14.40;99.90
9987;DHT22;5033;46.310;11.214;2022-10-17T04:15:54;14.50;99.90
9987;DHT22;5033;46.310;11.214;2022-10-17T04:18:22;14.40;99.90
9987;DHT22;5033;46.310;11.214;2022-10-17T04:20:49;14.50;99.90
9987;DHT22;5033;46.310;11.214;2022-10-17T04:23:17;14.50;99.90
9987;DHT22;5033;46.310;11.214;2022-10-17T04:25:44;14.50;99.90
9987;DHT22;5033;46.310;11.214;2022-10-17T04:28:11;14.40;99.90
9987;DHT22;5033;46.310;11.214;2022-10-17T04:30:40;14.30;99.90
9987;DHT22;5033;46.310;11.214;2022-10-17T04:33:07;14.30;99.90
9987;DHT22;5033;46.310;11.214;2022-10-17T04:35:34;14.30;99.90
9987;DHT22;5033;46.310;11.214;2022-10-17T04:38:01;14.20;99.90
9987;DHT22;5033;46.310;11.214;2022-10-17T04:40:28;14.20;99.90
9987;DHT22;5033;46.310;11.214;2022-10-17T04:42:55;14.10;99.90
9987;DHT22;5033;46.310;11.214;2022-10-17T04:45:25;14.10;99.90
9987;DHT22;5033;46.310;11.214;2022-10-17T04:47:53;14.00;99.90
9987;DHT22;5033;46.310;11.214;2022-10-17T04:50:20;14.00;99.90
9987;DHT22;5033;46.310;11.214;2022-10-17T04:52:47;14.00;99.90
9987;DHT22;5033;46.310;11.214;2022-10-17T04:55:14;13.90;99.90
9987;DHT22;5033;46.310;11.214;2022-10-17T04:57:42;13.90;99.90
9987;DHT22;5033;46.310;11.214;2022-10-17T05:00:10;13.90;99.90
9987;DHT22;5033;46.310;11.214;2022-10-17T05:02:37;13.80;99.90
9987;DHT22;5033;46.310;11.214;2022-10-17T05:05:06;13.80;99.90
9987;DHT22;5033;46.310;11.214;2022-10-17T05:07:33;13.80;99.90
9987;DHT22;5033;46.310;11.214;2022-10-17T05:10:01;13.80;99.90
9987;DHT22;5033;46.310;11.214;2022-10-17T05:12:28;13.80;99.90
9987;DHT22;5033;46.310;11.214;2022-10-17T05:14:55;13.70;99.90
9987;DHT22;5033;46.310;11.214;2022-10-17T05:17:22;13.80;99.90
9987;DHT22;5033;46.310;11.214;2022-10-17T05:19:49;13.70;99.90
9987;DHT22;5033;46.310;11.214;2022-10-17T05:22:17;13.70;99.90
9987;DHT22;5033;46.310;11.214;2022-10-17T05:24:44;13.70;99.90
9987;DHT22;5033;46.310;11.214;2022-10-17T05:27:12;13.60;99.90
9987;DHT22;5033;46.310;11.214;2022-10-17T05:29:39;13.60;99.90
9987;DHT22;5033;46.310;11.214;2022-10-17T05:32:06;13.60;99.90
9987;DHT22;5033;46.310;11.214;2022-10-17T05:34:33;13.60;99.90
9987;DHT22;5033;46.310;11.214;2022-10-17T05:37:00;13.50;99.90
9987;DHT22;5033;46.310;11.214;2022-10-17T05:39:29;13.50;99.90
9987;DHT22;5033;46.310;11.214;2022-10-17T05:41:56;13.50;99.90
9987;DHT22;5033;46.310;11.214;2022-10-17T05:44:23;13.50;99.90
9987;DHT22;5033;46.310;11.214;2022-10-17T05:46:51;13.50;99.90
9987;DHT22;5033;46.310;11.214;2022-10-17T05:49:18;13.50;99.90
9987;DHT22;5033;46.310;11.214;2022-10-17T05:51:45;13.50;99.90
9987;DHT22;5033;46.310;11.214;2022-10-17T05:54:12;13.50;99.90
9987;DHT22;5033;46.310;11.214;2022-10-17T05:56:41;13.50;99.90
9987;DHT22;5033;46.310;11.214;2022-10-17T05:59:08;13.50;99.90
9987;DHT22;5033;46.310;11.214;2022-10-17T06:01:35;13.40;99.90
9987;DHT22;5033;46.310;11.214;2022-10-17T06:06:34;13.50;99.90
9987;DHT22;5033;46.310;11.214;2022-10-17T06:09:02;13.40;99.90
9987;DHT22;5033;46.310;11.214;2022-10-17T06:11:29;13.40;99.90
9987;DHT22;5033;46.310;11.214;2022-10-17T06:13:59;13.40;99.90
9987;DHT22;5033;46.310;11.214;2022-10-17T06:16:26;13.50;99.90
9987;DHT22;5033;46.310;11.214;2022-10-17T06:18:54;13.50;99.90
9987;DHT22;5033;46.310;11.214;2022-10-17T06:21:23;13.60;99.90
9987;DHT22;5033;46.310;11.214;2022-10-17T06:23:51;13.60;99.90
9987;DHT22;5033;46.310;11.214;2022-10-17T06:26:19;13.70;99.90
9987;DHT22;5033;46.310;11.214;2022-10-17T06:28:46;13.70;99.90
9987;DHT22;5033;46.310;11.214;2022-10-17T06:31:16;13.70;99.90
9987;DHT22;5033;46.310;11.214;2022-10-17T06:33:43;13.80;99.90
9987;DHT22;5033;46.310;11.214;2022-10-17T06:36:12;13.80;99.90
9987;DHT22;5033;46.310;11.214;2022-10-17T06:38:40;13.90;99.90
9987;DHT22;5033;46.310;11.214;2022-10-17T06:41:10;14.00;99.90
9987;DHT22;5033;46.310;11.214;2022-10-17T06:43:39;14.00;99.90
9987;DHT22;5033;46.310;11.214;2022-10-17T06:46:08;14.10;99.90
9987;DHT22;5033;46.310;11.214;2022-10-17T06:48:37;14.40;99.90
9987;DHT22;5033;46.310;11.214;2022-10-17T06:51:05;14.70;99.90
9987;DHT22;5033;46.310;11.214;2022-10-17T06:53:35;15.00;99.90
9987;DHT22;5033;46.310;11.214;2022-10-17T06:56:03;15.60;99.90
9987;DHT22;5033;46.310;11.214;2022-10-17T06:58:32;16.10;99.90
9987;DHT22;5033;46.310;11.214;2022-10-17T07:01:00;16.60;99.90
9987;DHT22;5033;46.310;11.214;2022-10-17T07:03:28;17.00;99.90
9987;DHT22;5033;46.310;11.214;2022-10-17T07:05:58;17.30;99.90
9987;DHT22;5033;46.310;11.214;2022-10-17T07:08:25;17.60;99.90
9987;DHT22;5033;46.310;11.214;2022-10-17T07:10:53;17.80;99.90
9987;DHT22;5033;46.310;11.214;2022-10-17T07:13:21;18.10;99.90
9987;DHT22;5033;46.310;11.214;2022-10-17T07:15:49;18.10;99.90
9987;DHT22;5033;46.310;11.214;2022-10-17T07:18:16;17.90;99.90
9987;DHT22;5033;46.310;11.214;2022-10-17T07:20:51;17.90;99.90
9987;DHT22;5033;46.310;11.214;2022-10-17T07:23:21;17.90;99.90
9987;DHT22;5033;46.310;11.214;2022-10-17T07:25:49;17.90;99.90
9987;DHT22;5033;46.310;11.214;2022-10-17T07:28:16;18.00;99.90
9987;DHT22;5033;46.310;11.214;2022-10-17T07:30:44;18.40;99.90
9987;DHT22;5033;46.310;11.214;2022-10-17T07:33:11;18.80;99.90
9987;DHT22;5033;46.310;11.214;2022-10-17T07:35:39;19.10;99.90
9987;DHT22;5033;46.310;11.214;2022-10-17T07:38:07;19.30;99.90
9987;DHT22;5033;46.310;11.214;2022-10-17T07:40:36;19.60;99.90
9987;DHT22;5033;46.310;11.214;2022-10-17T07:43:03;19.80;99.90
9987;DHT22;5033;46.310;11.214;2022-10-17T07:45:30;20.00;99.90
9987;DHT22;5033;46.310;11.214;2022-10-17T07:47:59;20.10;99.90
9987;DHT22;5033;46.310;11.214;2022-10-17T07:50:26;20.10;99.90
9987;DHT22;5033;46.310;11.214;2022-10-17T07:52:54;20.10;99.90
9987;DHT22;5033;46.310;11.214;2022-10-17T07:55:21;20.10;99.90
9987;DHT22;5033;46.310;11.214;2022-10-17T07:57:50;20.20;99.90
9987;DHT22;5033;46.310;11.214;2022-10-17T08:00:17;20.30;99.90
9987;DHT22;5033;46.310;11.214;2022-10-17T08:02:45;20.40;99.90
9987;DHT22;5033;46.310;11.214;2022-10-17T08:05:13;20.40;99.90
9987;DHT22;5033;46.310;11.214;2022-10-17T08:07:50;20.40;99.90
9987;DHT22;5033;46.310;11.214;2022-10-17T08:10:17;20.40;99.90
9987;DHT22;5033;46.310;11.214;2022-10-17T08:12:45;20.40;99.90
9987;DHT22;5033;46.310;11.214;2022-10-17T08:15:13;20.40;99.90
9987;DHT22;5033;46.310;11.214;2022-10-17T08:17:41;20.40;99.90
9987;DHT22;5033;46.310;11.214;2022-10-17T08:20:09;20.50;99.90
9987;DHT22;5033;46.310;11.214;2022-10-17T08:22:37;20.60;99.90
9987;DHT22;5033;46.310;11.214;2022-10-17T08:25:06;20.80;99.90
9987;DHT22;5033;46.310;11.214;2022-10-17T08:27:34;20.90;99.90
9987;DHT22;5033;46.310;11.214;2022-10-17T08:30:01;21.00;99.90
9987;DHT22;5033;46.310;11.214;2022-10-17T08:32:31;21.00;99.90
9987;DHT22;5033;46.310;11.214;2022-10-17T08:34:58;20.90;99.90
9987;DHT22;5033;46.310;11.214;2022-10-17T08:37:25;20.90;99.90
9987;DHT22;5033;46.310;11.214;2022-10-17T08:39:54;20.90;99.90
9987;DHT22;5033;46.310;11.214;2022-10-17T08:42:46;21.00;99.90
9987;DHT22;5033;46.310;11.214;2022-10-17T08:45:23;21.20;99.90
9987;DHT22;5033;46.310;11.214;2022-10-17T08:47:58;21.60;99.90
9987;DHT22;5033;46.310;11.214;2022-10-17T08:50:31;21.90;99.90
9987;DHT22;5033;46.310;11.214;2022-10-17T08:53:05;21.90;99.90
9987;DHT22;5033;46.310;11.214;2022-10-17T08:55:36;22.00;99.90
9987;DHT22;5033;46.310;11.214;2022-10-17T08:58:11;21.90;99.90
9987;DHT22;5033;46.310;11.214;2022-10-17T09:00:42;22.30;99.90
9987;DHT22;5033;46.310;11.214;2022-10-17T09:03:30;22.60;99.90
9987;DHT22;5033;46.310;11.214;2022-10-17T09:06:13;22.70;99.90
9987;DHT22;5033;46.310;11.214;2022-10-17T09:08:47;22.80;99.90
9987;DHT22;5033;46.310;11.214;2022-10-17T09:11:26;22.90;99.90
9987;DHT22;5033;46.310;11.214;2022-10-17T09:14:05;22.90;99.90
9987;DHT22;5033;46.310;11.214;2022-10-17T09:16:46;22.80;99.90
9987;DHT22;5033;46.310;11.214;2022-10-17T09:19:19;23.00;99.90
9987;DHT22;5033;46.310;11.214;2022-10-17T09:21:52;23.10;99.90
9987;DHT22;5033;46.310;11.214;2022-10-17T09:24:26;23.20;99.90
9987;DHT22;5033;46.310;11.214;2022-10-17T09:26:57;23.10;99.90
9987;DHT22;5033;46.310;11.214;2022-10-17T09:29:26;23.20;99.90
9987;DHT22;5033;46.310;11.214;2022-10-17T09:31:58;23.20;99.90
9987;DHT22;5033;46.310;11.214;2022-10-17T09:34:29;23.30;99.90
9987;DHT22;5033;46.310;11.214;2022-10-17T09:36:58;23.40;99.90
9987;DHT22;5033;46.310;11.214;2022-10-17T09:39:27;23.60;99.90
9987;DHT22;5033;46.310;11.214;2022-10-17T09:41:58;23.90;99.90
9987;DHT22;5033;46.310;11.214;2022-10-17T09:44:30;23.90;99.90
9987;DHT22;5033;46.310;11.214;2022-10-17T09:47:12;23.80;99.90
9987;DHT22;5033;46.310;11.214;2022-10-17T09:49:44;23.80;99.90
9987;DHT22;5033;46.310;11.214;2022-10-17T09:52:14;24.10;99.90
9987;DHT22;5033;46.310;11.214;2022-10-17T09:54:44;24.30;99.90
9987;DHT22;5033;46.310;11.214;2022-10-17T09:57:13;24.30;99.90
9987;DHT22;5033;46.310;11.214;2022-10-17T09:59:43;24.10;99.90
9987;DHT22;5033;46.310;11.214;2022-10-17T10:02:20;23.90;99.90
9987;DHT22;5033;46.310;11.214;2022-10-17T10:04:58;24.00;99.90
9987;DHT22;5033;46.310;11.214;2022-10-17T10:07:27;24.20;99.90
9987;DHT22;5033;46.310;11.214;2022-10-17T10:09:55;24.10;99.90
9987;DHT22;5033;46.310;11.214;2022-10-17T10:12:25;24.00;99.90
9987;DHT22;5033;46.310;11.214;2022-10-17T10:14:53;23.90;99.90
9987;DHT22;5033;46.310;11.214;2022-10-17T10:17:36;23.90;99.90
9987;DHT22;5033;46.310;11.214;2022-10-17T10:20:28;24.10;99.90
9987;DHT22;5033;46.310;11.214;2022-10-17T10:23:14;24.20;99.90
9987;DHT22;5033;46.310;11.214;2022-10-17T10:25:52;24.10;99.90
9987;DHT22;5033;46.310;11.214;2022-10-17T10:28:22;24.30;99.90
9987;DHT22;5033;46.310;11.214;2022-10-17T10:30:51;24.20;99.90
9987;DHT22;5033;46.310;11.214;2022-10-17T10:33:21;24.20;99.90
9987;DHT22;5033;46.310;11.214;2022-10-17T10:35:59;24.10;99.90
9987;DHT22;5033;46.310;11.214;2022-10-17T10:38:28;23.90;99.90
9987;DHT22;5033;46.310;11.214;2022-10-17T10:41:01;24.10;99.90
9987;DHT22;5033;46.310;11.214;2022-10-17T10:43:35;24.10;99.90
9987;DHT22;5033;46.310;11.214;2022-10-17T10:46:05;24.20;99.90
9987;DHT22;5033;46.310;11.214;2022-10-17T10:48:50;24.20;99.90
9987;DHT22;5033;46.310;11.214;2022-10-17T10:51:28;24.10;99.90
9987;DHT22;5033;46.310;11.214;2022-10-17T10:54:02;24.10;99.90
9987;DHT22;5033;46.310;11.214;2022-10-17T10:56:36;24.00;99.90
9987;DHT22;5033;46.310;11.214;2022-10-17T10:59:08;23.90;99.90
9987;DHT22;5033;46.310;11.214;2022-10-17T11:01:44;23.70;99.90
9987;DHT22;5033;46.310;11.214;2022-10-17T11:04:20;23.70;99.90
9987;DHT22;5033;46.310;11.214;2022-10-17T11:06:54;23.80;99.90
9987;DHT22;5033;46.310;11.214;2022-10-17T11:09:30;24.10;99.90
9987;DHT22;5033;46.310;11.214;2022-10-17T11:12:01;24.10;99.90
9987;DHT22;5033;46.310;11.214;2022-10-17T11:14:40;24.00;99.90
9987;DHT22;5033;46.310;11.214;2022-10-17T11:17:16;24.10;99.90
9987;DHT22;5033;46.310;11.214;2022-10-17T11:19:51;24.10;99.90
9987;DHT22;5033;46.310;11.214;2022-10-17T11:22:28;24.10;99.90
9987;DHT22;5033;46.310;11.214;2022-10-17T11:24:59;24.00;99.90
9987;DHT22;5033;46.310;11.214;2022-10-17T11:27:30;24.10;99.90
9987;DHT22;5033;46.310;11.214;2022-10-17T11:29:57;24.00;99.90
9987;DHT22;5033;46.310;11.214;2022-10-17T11:32:28;23.90;99.90
9987;DHT22;5033;46.310;11.214;2022-10-17T11:35:01;23.90;99.90
9987;DHT22;5033;46.310;11.214;2022-10-17T11:37:34;24.20;99.90
9987;DHT22;5033;46.310;11.214;2022-10-17T11:40:05;24.20;99.90
9987;DHT22;5033;46.310;11.214;2022-10-17T11:42:39;24.20;99.90
9987;DHT22;5033;46.310;11.214;2022-10-17T11:45:10;24.40;99.90
9987;DHT22;5033;46.310;11.214;2022-10-17T11:47:44;24.70;99.90
9987;DHT22;5033;46.310;11.214;2022-10-17T11:50:19;24.70;99.90
9987;DHT22;5033;46.310;11.214;2022-10-17T11:52:53;24.70;99.90
9987;DHT22;5033;46.310;11.214;2022-10-17T11:55:23;24.60;99.90
9987;DHT22;5033;46.310;11.214;2022-10-17T11:58:08;24.60;99.90
9987;DHT22;5033;46.310;11.214;2022-10-17T12:00:53;24.50;99.90
9987;DHT22;5033;46.310;11.214;2022-10-17T12:03:32;24.50;99.90
9987;DHT22;5033;46.310;11.214;2022-10-17T12:06:07;24.50;99.90
9987;DHT22;5033;46.310;11.214;2022-10-17T12:08:42;24.50;99.90
9987;DHT22;5033;46.310;11.214;2022-10-17T12:11:19;24.50;99.90
9987;DHT22;5033;46.310;11.214;2022-10-17T12:13:52;24.80;99.90
9987;DHT22;5033;46.310;11.214;2022-10-17T12:16:49;24.80;99.90
9987;DHT22;5033;46.310;11.214;2022-10-17T12:19:33;24.90;99.90
9987;DHT22;5033;46.310;11.214;2022-10-17T12:22:18;25.00;99.90
9987;DHT22;5033;46.310;11.214;2022-10-17T12:24:57;24.80;99.90
9987;DHT22;5033;46.310;11.214;2022-10-17T12:27:39;24.70;99.90
9987;DHT22;5033;46.310;11.214;2022-10-17T12:30:19;24.70;99.90
9987;DHT22;5033;46.310;11.214;2022-10-17T12:33:04;24.70;99.90
9987;DHT22;5033;46.310;11.214;2022-10-17T12:35:34;24.70;99.90
9987;DHT22;5033;46.310;11.214;2022-10-17T12:38:26;24.80;99.90
9987;DHT22;5033;46.310;11.214;2022-10-17T12:40:59;24.80;99.90
9987;DHT22;5033;46.310;11.214;2022-10-17T12:43:48;24.50;99.90
9987;DHT22;5033;46.310;11.214;2022-10-17T12:46:41;24.70;99.90
9987;DHT22;5033;46.310;11.214;2022-10-17T12:49:21;24.70;99.90
9987;DHT22;5033;46.310;11.214;2022-10-17T12:52:25;24.70;99.90
9987;DHT22;5033;46.310;11.214;2022-10-17T12:55:04;24.60;99.90
9987;DHT22;5033;46.310;11.214;2022-10-17T12:57:37;24.60;99.90
9987;DHT22;5033;46.310;11.214;2022-10-17T13:00:16;24.70;99.90
9987;DHT22;5033;46.310;11.214;2022-10-17T13:02:44;24.70;99.90
9987;DHT22;5033;46.310;11.214;2022-10-17T13:05:15;24.60;99.90
9987;DHT22;5033;46.310;11.214;2022-10-17T13:07:44;24.40;99.90
9987;DHT22;5033;46.310;11.214;2022-10-17T13:10:19;24.40;99.90
9987;DHT22;5033;46.310;11.214;2022-10-17T13:12:50;24.30;99.90
9987;DHT22;5033;46.310;11.214;2022-10-17T13:15:20;24.40;99.90
9987;DHT22;5033;46.310;11.214;2022-10-17T13:17:55;24.50;99.90
9987;DHT22;5033;46.310;11.214;2022-10-17T13:20:25;24.60;99.90
9987;DHT22;5033;46.310;11.214;2022-10-17T13:22:53;24.50;99.90
9987;DHT22;5033;46.310;11.214;2022-10-17T13:25:22;24.40;99.90
9987;DHT22;5033;46.310;11.214;2022-10-17T13:28:03;24.30;99.90
9987;DHT22;5033;46.310;11.214;2022-10-17T13:30:32;24.40;99.90
9987;DHT22;5033;46.310;11.214;2022-10-17T13:32:59;24.40;99.90
9987;DHT22;5033;46.310;11.214;2022-10-17T13:35:29;24.40;99.90
9987;DHT22;5033;46.310;11.214;2022-10-17T13:37:58;24.40;99.90
9987;DHT22;5033;46.310;11.214;2022-10-17T13:40:28;24.40;99.90
9987;DHT22;5033;46.310;11.214;2022-10-17T13:42:58;24.50;99.90
9987;DHT22;5033;46.310;11.214;2022-10-17T13:45:29;24.40;99.90
9987;DHT22;5033;46.310;11.214;2022-10-17T13:47:57;24.40;99.90
9987;DHT22;5033;46.310;11.214;2022-10-17T13:50:32;24.30;99.90
9987;DHT22;5033;46.310;11.214;2022-10-17T13:53:11;24.20;99.90
9987;DHT22;5033;46.310;11.214;2022-10-17T13:55:50;24.20;99.90
9987;DHT22;5033;46.310;11.214;2022-10-17T13:58:18;24.20;99.90
9987;DHT22;5033;46.310;11.214;2022-10-17T14:00:46;24.10;99.90
9987;DHT22;5033;46.310;11.214;2022-10-17T14:03:15;24.10;99.90
9987;DHT22;5033;46.310;11.214;2022-10-17T14:08:56;24.10;99.90
9987;DHT22;5033;46.310;11.214;2022-10-17T14:11:28;24.10;99.90
9987;DHT22;5033;46.310;11.214;2022-10-17T14:13:58;24.10;99.90
9987;DHT22;5033;46.310;11.214;2022-10-17T14:16:33;24.10;99.90
9987;DHT22;5033;46.310;11.214;2022-10-17T14:19:01;24.10;99.90
9987;DHT22;5033;46.310;11.214;2022-10-17T14:21:28;24.00;99.90
9987;DHT22;5033;46.310;11.214;2022-10-17T14:24:13;24.00;99.90
9987;DHT22;5033;46.310;11.214;2022-10-17T14:26:48;24.00;99.90
9987;DHT22;5033;46.310;11.214;2022-10-17T14:29:23;24.00;99.90
9987;DHT22;5033;46.310;11.214;2022-10-17T14:32:00;24.00;99.90
9987;DHT22;5033;46.310;11.214;2022-10-17T14:34:32;23.90;99.90
9987;DHT22;5033;46.310;11.214;2022-10-17T14:36:59;23.80;99.90
9987;DHT22;5033;46.310;11.214;2022-10-17T14:39:27;23.80;99.90
9987;DHT22;5033;46.310;11.214;2022-10-17T14:41:55;23.70;99.90
9987;DHT22;5033;46.310;11.214;2022-10-17T14:44:26;23.80;99.90
9987;DHT22;5033;46.310;11.214;2022-10-17T14:46:57;23.90;99.90
9987;DHT22;5033;46.310;11.214;2022-10-17T14:49:33;23.80;99.90
9987;DHT22;5033;46.310;11.214;2022-10-17T14:52:12;23.70;99.90
9987;DHT22;5033;46.310;11.214;2022-10-17T14:54:39;23.60;99.90
9987;DHT22;5033;46.310;11.214;2022-10-17T14:57:16;23.40;99.90
9987;DHT22;5033;46.310;11.214;2022-10-17T14:59:45;23.20;99.90
9987;DHT22;5033;46.310;11.214;2022-10-17T15:02:12;23.00;99.90
9987;DHT22;5033;46.310;11.214;2022-10-17T15:04:39;22.90;99.90
9987;DHT22;5033;46.310;11.214;2022-10-17T15:07:10;22.70;99.90
9987;DHT22;5033;46.310;11.214;2022-10-17T15:09:38;22.60;99.90
9987;DHT22;5033;46.310;11.214;2022-10-17T15:12:09;22.50;99.90
9987;DHT22;5033;46.310;11.214;2022-10-17T15:14:38;22.40;99.90
9987;DHT22;5033;46.310;11.214;2022-10-17T15:17:11;22.40;99.90
9987;DHT22;5033;46.310;11.214;2022-10-17T15:19:40;22.30;99.90
9987;DHT22;5033;46.310;11.214;2022-10-17T15:22:07;22.20;99.90
9987;DHT22;5033;46.310;11.214;2022-10-17T15:24:34;22.10;99.90
9987;DHT22;5033;46.310;11.214;2022-10-17T15:27:01;22.00;99.90
9987;DHT22;5033;46.310;11.214;2022-10-17T15:29:28;21.90;99.90
9987;DHT22;5033;46.310;11.214;2022-10-17T15:31:55;21.70;99.90
9987;DHT22;5033;46.310;11.214;2022-10-17T15:34:24;21.60;99.90
9987;DHT22;5033;46.310;11.214;2022-10-17T15:36:51;21.60;99.90
9987;DHT22;5033;46.310;11.214;2022-10-17T15:39:19;21.60;99.90
9987;DHT22;5033;46.310;11.214;2022-10-17T15:41:46;21.50;99.90
9987;DHT22;5033;46.310;11.214;2022-10-17T15:44:14;21.40;99.90
9987;DHT22;5033;46.310;11.214;2022-10-17T15:46:41;21.40;99.90
9987;DHT22;5033;46.310;11.214;2022-10-17T15:49:11;21.30;99.90
9987;DHT22;5033;46.310;11.214;2022-10-17T15:51:40;21.10;99.90
9987;DHT22;5033;46.310;11.214;2022-10-17T15:54:07;21.10;99.90
9987;DHT22;5033;46.310;11.214;2022-10-17T15:56:37;21.00;99.90
9987;DHT22;5033;46.310;11.214;2022-10-17T15:59:11;21.00;99.90
9987;DHT22;5033;46.310;11.214;2022-10-17T16:01:40;20.90;99.90
9987;DHT22;5033;46.310;11.214;2022-10-17T16:04:09;20.80;99.90
9987;DHT22;5033;46.310;11.214;2022-10-17T16:06:37;20.70;99.90
9987;DHT22;5033;46.310;11.214;2022-10-17T16:09:06;20.70;99.90
9987;DHT22;5033;46.310;11.214;2022-10-17T16:11:35;20.60;99.90
9987;DHT22;5033;46.310;11.214;2022-10-17T16:14:05;20.50;99.90
9987;DHT22;5033;46.310;11.214;2022-10-17T16:16:33;20.30;99.90
9987;DHT22;5033;46.310;11.214;2022-10-17T16:19:00;20.20;99.90
9987;DHT22;5033;46.310;11.214;2022-10-17T16:21:29;20.10;99.90